createdAt,value
2018-04-20T00:00:18.386Z,967.81
2018-04-20T00:01:18.365Z,967.81
2018-04-20T00:02:18.344Z,967.80
2018-04-20T00:03:18.324Z,967.79
2018-04-20T00:04:18.302Z,967.78
2018-04-20T00:05:18.282Z,967.79
2018-04-20T00:06:18.260Z,967.77
2018-04-20T00:07:18.240Z,967.80
2018-04-20T00:08:18.220Z,967.76
2018-04-20T00:09:18.198Z,967.76
2018-04-20T00:10:18.178Z,967.81
2018-04-20T00:11:18.159Z,967.79
2018-04-20T00:12:18.137Z,967.77
2018-04-20T00:13:18.114Z,967.75
2018-04-20T00:14:18.094Z,967.76
2018-04-20T00:15:18.074Z,967.75
2018-04-20T00:16:18.053Z,967.73
2018-04-20T00:17:18.031Z,967.70
2018-04-20T00:18:18.011Z,967.69
2018-04-20T00:19:17.990Z,967.64
2018-04-20T00:20:17.969Z,967.66
2018-04-20T00:21:17.946Z,967.62
2018-04-20T00:22:17.925Z,967.67
2018-04-20T00:23:17.905Z,967.59
2018-04-20T00:24:17.888Z,967.62
2018-04-20T00:25:17.863Z,967.60
2018-04-20T00:26:17.842Z,967.62
2018-04-20T00:27:17.822Z,967.58
2018-04-20T00:28:17.802Z,967.58
2018-04-20T00:29:17.780Z,967.58
2018-04-20T00:30:17.759Z,967.56
2018-04-20T00:31:17.738Z,967.59
2018-04-20T00:32:17.718Z,967.56
2018-04-20T00:33:17.697Z,967.56
2018-04-20T00:34:17.674Z,967.55
2018-04-20T00:35:17.654Z,967.52
2018-04-20T00:36:17.634Z,967.51
2018-04-20T00:37:18.362Z,967.52
2018-04-20T00:38:17.591Z,967.50
2018-04-20T00:39:17.570Z,967.49
2018-04-20T00:40:17.548Z,967.49
2018-04-20T00:41:17.528Z,967.53
2018-04-20T00:42:17.506Z,967.49
2018-04-20T00:43:17.486Z,967.51
2018-04-20T00:44:17.465Z,967.49
2018-04-20T00:45:17.519Z,967.49
2018-04-20T00:46:17.422Z,967.50
2018-04-20T00:47:17.402Z,967.51
2018-04-20T00:48:17.382Z,967.46
2018-04-20T00:49:17.358Z,967.47
2018-04-20T00:50:17.337Z,967.45
2018-04-20T00:51:17.316Z,967.43
2018-04-20T00:52:17.296Z,967.43
2018-04-20T00:53:17.274Z,967.40
2018-04-20T00:54:17.252Z,967.42
2018-04-20T00:55:17.233Z,967.42
2018-04-20T00:56:17.211Z,967.45
2018-04-20T00:57:17.189Z,967.44
2018-04-20T00:58:17.169Z,967.43
2018-04-20T00:59:17.147Z,967.42
2018-04-20T01:00:17.127Z,967.42
2018-04-20T01:01:17.112Z,967.42
2018-04-20T01:02:17.083Z,967.40
2018-04-20T01:03:17.063Z,967.38
2018-04-20T01:04:17.043Z,967.38
2018-04-20T01:05:17.024Z,967.36
2018-04-20T01:06:17.004Z,967.37
2018-04-20T01:07:16.982Z,967.36
2018-04-20T01:08:16.958Z,967.36
2018-04-20T01:09:16.937Z,967.38
2018-04-20T01:10:16.916Z,967.38
2018-04-20T01:11:16.893Z,967.40
2018-04-20T01:12:16.875Z,967.35
2018-04-20T01:13:16.852Z,967.38
2018-04-20T01:14:16.830Z,967.41
2018-04-20T01:15:16.810Z,967.37
2018-04-20T01:16:16.789Z,967.37
2018-04-20T01:17:16.767Z,967.39
2018-04-20T01:18:16.746Z,967.40
2018-04-20T01:19:16.725Z,967.33
2018-04-20T01:20:16.706Z,967.33
2018-04-20T01:21:16.684Z,967.32
2018-04-20T01:22:16.663Z,967.34
2018-04-20T01:23:16.642Z,967.36
2018-04-20T01:24:16.623Z,967.36
2018-04-20T01:25:16.600Z,967.36
2018-04-20T01:26:16.581Z,967.35
2018-04-20T01:27:16.559Z,967.34
2018-04-20T01:28:16.537Z,967.35
2018-04-20T01:29:16.516Z,967.34
2018-04-20T01:30:16.494Z,967.35
2018-04-20T01:31:16.474Z,967.35
2018-04-20T01:32:16.452Z,967.33
2018-04-20T01:33:16.432Z,967.34
2018-04-20T01:34:16.411Z,967.33
2018-04-20T01:35:16.395Z,967.33
2018-04-20T01:36:16.371Z,967.33
2018-04-20T01:37:16.349Z,967.35
2018-04-20T01:38:16.327Z,967.35
2018-04-20T01:39:16.305Z,967.38
2018-04-20T01:40:16.286Z,967.34
2018-04-20T01:41:16.263Z,967.33
2018-04-20T01:42:16.243Z,967.34
2018-04-20T01:43:16.222Z,967.30
2018-04-20T01:44:16.200Z,967.34
2018-04-20T01:45:16.179Z,967.30
2018-04-20T01:46:16.157Z,967.32
2018-04-20T01:47:16.137Z,967.32
2018-04-20T01:48:16.116Z,967.32
2018-04-20T01:49:16.095Z,967.31
2018-04-20T01:50:16.083Z,967.34
2018-04-20T01:51:16.053Z,967.33
2018-04-20T01:52:16.032Z,967.34
2018-04-20T01:53:16.012Z,967.33
2018-04-20T01:54:15.989Z,967.33
2018-04-20T01:55:15.968Z,967.31
2018-04-20T01:56:15.946Z,967.31
2018-04-20T01:57:15.924Z,967.33
2018-04-20T01:58:15.904Z,967.36
2018-04-20T01:59:15.883Z,967.33
2018-04-20T02:00:15.860Z,967.31
2018-04-20T02:01:15.840Z,967.34
2018-04-20T02:02:15.818Z,967.32
2018-04-20T02:03:15.798Z,967.31
2018-04-20T02:04:15.776Z,967.31
2018-04-20T02:05:15.755Z,967.35
2018-04-20T02:06:15.735Z,967.32
2018-04-20T02:07:15.713Z,967.30
2018-04-20T02:08:15.695Z,967.31
2018-04-20T02:09:15.671Z,967.32
2018-04-20T02:10:15.650Z,967.27
2018-04-20T02:11:15.628Z,967.31
2018-04-20T02:12:15.614Z,967.27
2018-04-20T02:13:15.651Z,967.30
2018-04-20T02:14:15.564Z,967.31
2018-04-20T02:15:15.542Z,967.27
2018-04-20T02:16:15.522Z,967.29
2018-04-20T02:17:15.499Z,967.27
2018-04-20T02:18:15.480Z,967.26
2018-04-20T02:19:15.458Z,967.30
2018-04-20T02:20:15.439Z,967.26
2018-04-20T02:21:15.415Z,967.29
2018-04-20T02:22:15.394Z,967.25
2018-04-20T02:23:15.371Z,967.28
2018-04-20T02:24:15.350Z,967.31
2018-04-20T02:25:15.328Z,967.27
2018-04-20T02:26:15.308Z,967.29
2018-04-20T02:27:15.286Z,967.25
2018-04-20T02:28:15.266Z,967.24
2018-04-20T02:29:15.244Z,967.27
2018-04-20T02:30:15.222Z,967.22
2018-04-20T02:31:15.201Z,967.27
2018-04-20T02:32:15.191Z,967.26
2018-04-20T02:33:15.156Z,967.27
2018-04-20T02:34:15.136Z,967.28
2018-04-20T02:35:15.113Z,967.25
2018-04-20T02:36:15.120Z,967.21
2018-04-20T02:37:15.073Z,967.26
2018-04-20T02:38:15.048Z,967.22
2018-04-20T02:39:15.027Z,967.22
2018-04-20T02:40:15.006Z,967.22
2018-04-20T02:41:14.983Z,967.22
2018-04-20T02:42:14.964Z,967.22
2018-04-20T02:43:14.940Z,967.22
2018-04-20T02:44:14.919Z,967.19
2018-04-20T02:45:14.897Z,967.19
2018-04-20T02:46:14.874Z,967.18
2018-04-20T02:47:14.856Z,967.21
2018-04-20T02:48:14.832Z,967.19
2018-04-20T02:49:14.810Z,967.19
2018-04-20T02:50:14.789Z,967.18
2018-04-20T02:51:14.765Z,967.19
2018-04-20T02:52:14.745Z,967.17
2018-04-20T02:53:14.723Z,967.17
2018-04-20T02:54:14.702Z,967.18
2018-04-20T02:55:14.680Z,967.16
2018-04-20T02:56:14.658Z,967.19
2018-04-20T02:57:14.637Z,967.20
2018-04-20T02:58:14.613Z,967.17
2018-04-20T02:59:14.595Z,967.16
2018-04-20T03:00:14.570Z,967.15
2018-04-20T03:01:14.549Z,967.16
2018-04-20T03:02:14.527Z,967.18
2018-04-20T03:03:14.505Z,967.14
2018-04-20T03:04:14.484Z,967.19
2018-04-20T03:05:14.460Z,967.17
2018-04-20T03:06:14.443Z,967.16
2018-04-20T03:07:14.424Z,967.14
2018-04-20T03:08:14.400Z,967.18
2018-04-20T03:09:14.375Z,967.16
2018-04-20T03:10:14.351Z,967.10
2018-04-20T03:11:14.328Z,967.13
2018-04-20T03:12:14.307Z,967.10
2018-04-20T03:13:14.288Z,967.12
2018-04-20T03:14:15.763Z,967.07
2018-04-20T03:15:14.241Z,967.07
2018-04-20T03:16:14.221Z,967.09
2018-04-20T03:17:14.197Z,967.10
2018-04-20T03:18:14.177Z,967.10
2018-04-20T03:19:14.154Z,967.10
2018-04-20T03:20:14.134Z,967.07
2018-04-20T03:21:14.112Z,967.07
2018-04-20T03:22:14.090Z,967.12
2018-04-20T03:23:14.069Z,967.13
2018-04-20T03:24:14.046Z,967.13
2018-04-20T03:25:14.024Z,967.14
2018-04-20T03:26:14.002Z,967.17
2018-04-20T03:27:13.981Z,967.13
2018-04-20T03:28:13.958Z,967.12
2018-04-20T03:29:13.936Z,967.10
2018-04-20T03:30:13.916Z,967.13
2018-04-20T03:31:13.893Z,967.15
2018-04-20T03:32:13.872Z,967.11
2018-04-20T03:33:13.848Z,967.16
2018-04-20T03:34:13.826Z,967.17
2018-04-20T03:35:13.807Z,967.16
2018-04-20T03:36:13.784Z,967.14
2018-04-20T03:37:13.761Z,967.14
2018-04-20T03:38:13.741Z,967.17
2018-04-20T03:39:13.717Z,967.13
2018-04-20T03:40:13.696Z,967.16
2018-04-20T03:41:13.674Z,967.15
2018-04-20T03:42:13.653Z,967.16
2018-04-20T03:43:13.631Z,967.19
2018-04-20T03:44:13.609Z,967.15
2018-04-20T03:45:13.588Z,967.13
2018-04-20T03:46:13.568Z,967.17
2018-04-20T03:47:13.546Z,967.17
2018-04-20T03:48:13.522Z,967.14
2018-04-20T03:49:13.498Z,967.13
2018-04-20T03:50:13.478Z,967.17
2018-04-20T03:51:13.456Z,967.13
2018-04-20T03:52:13.432Z,967.18
2018-04-20T03:53:13.414Z,967.13
2018-04-20T03:54:13.388Z,967.18
2018-04-20T03:55:13.366Z,967.16
2018-04-20T03:56:13.348Z,967.17
2018-04-20T03:57:13.322Z,967.15
2018-04-20T03:58:13.301Z,967.18
2018-04-20T03:59:13.277Z,967.21
2018-04-20T04:00:13.260Z,967.20
2018-04-20T04:01:13.235Z,967.20
2018-04-20T04:02:13.211Z,967.17
2018-04-20T04:03:13.190Z,967.16
2018-04-20T04:04:13.175Z,967.22
2018-04-20T04:05:13.148Z,967.17
2018-04-20T04:06:13.124Z,967.20
2018-04-20T04:07:13.105Z,967.17
2018-04-20T04:08:13.083Z,967.18
2018-04-20T04:09:13.059Z,967.21
2018-04-20T04:10:13.036Z,967.20
2018-04-20T04:11:13.013Z,967.23
2018-04-20T04:12:13.051Z,967.16
2018-04-20T04:13:12.967Z,967.20
2018-04-20T04:14:12.948Z,967.22
2018-04-20T04:15:12.925Z,967.21
2018-04-20T04:16:12.902Z,967.21
2018-04-20T04:17:12.880Z,967.23
2018-04-20T04:18:12.858Z,967.20
2018-04-20T04:19:12.839Z,967.20
2018-04-20T04:20:12.814Z,967.22
2018-04-20T04:21:12.790Z,967.25
2018-04-20T04:22:12.768Z,967.25
2018-04-20T04:23:12.747Z,967.27
2018-04-20T04:24:12.724Z,967.23
2018-04-20T04:25:12.701Z,967.28
2018-04-20T04:26:12.679Z,967.27
2018-04-20T04:27:12.656Z,967.30
2018-04-20T04:28:12.635Z,967.28
2018-04-20T04:29:14.867Z,967.33
2018-04-20T04:30:12.592Z,967.30
2018-04-20T04:31:12.571Z,967.28
2018-04-20T04:32:12.547Z,967.30
2018-04-20T04:33:12.524Z,967.30
2018-04-20T04:34:12.502Z,967.31
2018-04-20T04:35:12.480Z,967.34
2018-04-20T04:36:12.458Z,967.34
2018-04-20T04:37:12.435Z,967.30
2018-04-20T04:38:12.412Z,967.31
2018-04-20T04:39:12.392Z,967.29
2018-04-20T04:40:12.370Z,967.30
2018-04-20T04:41:12.347Z,967.32
2018-04-20T04:42:12.325Z,967.36
2018-04-20T04:43:12.301Z,967.34
2018-04-20T04:44:12.282Z,967.35
2018-04-20T04:45:12.257Z,967.32
2018-04-20T04:46:12.236Z,967.32
2018-04-20T04:47:12.225Z,967.33
2018-04-20T04:48:12.193Z,967.31
2018-04-20T04:49:12.170Z,967.36
2018-04-20T04:50:12.148Z,967.34
2018-04-20T04:51:12.125Z,967.36
2018-04-20T04:52:12.103Z,967.37
2018-04-20T04:53:12.082Z,967.34
2018-04-20T04:54:12.065Z,967.39
2018-04-20T04:55:12.038Z,967.34
2018-04-20T04:56:12.046Z,967.37
2018-04-20T04:57:11.995Z,967.39
2018-04-20T04:58:11.972Z,967.40
2018-04-20T04:59:11.949Z,967.41
2018-04-20T05:00:11.929Z,967.40
2018-04-20T05:01:11.905Z,967.43
2018-04-20T05:02:11.883Z,967.43
2018-04-20T05:03:11.865Z,967.42
2018-04-20T05:04:11.840Z,967.45
2018-04-20T05:05:11.817Z,967.43
2018-04-20T05:06:11.796Z,967.41
2018-04-20T05:07:11.774Z,967.45
2018-04-20T05:08:11.753Z,967.41
2018-04-20T05:09:11.786Z,967.43
2018-04-20T05:10:11.709Z,967.47
2018-04-20T05:11:11.687Z,967.43
2018-04-20T05:12:11.664Z,967.44
2018-04-20T05:13:11.642Z,967.42
2018-04-20T05:14:11.624Z,967.42
2018-04-20T05:15:11.599Z,967.49
2018-04-20T05:16:11.576Z,967.46
2018-04-20T05:17:11.557Z,967.44
2018-04-20T05:18:11.533Z,967.46
2018-04-20T05:19:11.511Z,967.45
2018-04-20T05:20:11.490Z,967.49
2018-04-20T05:21:11.466Z,967.50
2018-04-20T05:22:11.445Z,967.48
2018-04-20T05:23:11.423Z,967.47
2018-04-20T05:24:11.403Z,967.49
2018-04-20T05:25:11.380Z,967.50
2018-04-20T05:26:11.359Z,967.50
2018-04-20T05:27:11.336Z,967.48
2018-04-20T05:28:11.315Z,967.49
2018-04-20T05:29:11.292Z,967.50
2018-04-20T05:30:11.270Z,967.55
2018-04-20T05:31:11.251Z,967.52
2018-04-20T05:32:11.226Z,967.50
2018-04-20T05:33:11.203Z,967.54
2018-04-20T05:34:11.183Z,967.50
2018-04-20T05:35:11.164Z,967.56
2018-04-20T05:36:11.142Z,967.51
2018-04-20T05:37:11.127Z,967.51
2018-04-20T05:38:11.096Z,967.52
2018-04-20T05:39:11.074Z,967.54
2018-04-20T05:40:11.056Z,967.55
2018-04-20T05:41:11.032Z,967.52
2018-04-20T05:42:11.012Z,967.56
2018-04-20T05:43:10.989Z,967.54
2018-04-20T05:44:10.969Z,967.56
2018-04-20T05:45:10.946Z,967.58
2018-04-20T05:46:10.922Z,967.53
2018-04-20T05:47:10.901Z,967.58
2018-04-20T05:48:10.882Z,967.56
2018-04-20T05:49:10.858Z,967.59
2018-04-20T05:50:10.837Z,967.61
2018-04-20T05:51:10.815Z,967.61
2018-04-20T05:52:10.793Z,967.58
2018-04-20T05:53:10.772Z,967.58
2018-04-20T05:54:10.751Z,967.63
2018-04-20T05:55:10.729Z,967.58
2018-04-20T05:56:10.707Z,967.59
2018-04-20T05:57:10.685Z,967.59
2018-04-20T05:58:10.663Z,967.61
2018-04-20T05:59:10.643Z,967.55
2018-04-20T06:00:10.622Z,967.59
2018-04-20T06:01:10.696Z,967.58
2018-04-20T06:02:10.578Z,967.60
2018-04-20T06:03:10.558Z,967.59
2018-04-20T06:04:10.542Z,967.61
2018-04-20T06:05:10.516Z,967.61
2018-04-20T06:06:10.493Z,967.55
2018-04-20T06:07:10.471Z,967.59
2018-04-20T06:08:10.451Z,967.61
2018-04-20T06:09:10.429Z,967.62
2018-04-20T06:10:10.410Z,967.60
2018-04-20T06:11:10.386Z,967.62
2018-04-20T06:12:10.366Z,967.60
2018-04-20T06:13:10.345Z,967.62
2018-04-20T06:14:10.362Z,967.61
2018-04-20T06:15:10.303Z,967.62
2018-04-20T06:16:10.281Z,967.63
2018-04-20T06:17:10.260Z,967.63
2018-04-20T06:18:10.238Z,967.61
2018-04-20T06:19:10.219Z,967.65
2018-04-20T06:20:10.197Z,967.66
2018-04-20T06:21:10.177Z,967.67
2018-04-20T06:22:10.155Z,967.68
2018-04-20T06:23:10.133Z,967.66
2018-04-20T06:24:10.113Z,967.68
2018-04-20T06:25:10.090Z,967.66
2018-04-20T06:26:10.070Z,967.67
2018-04-20T06:27:10.050Z,967.69
2018-04-20T06:28:10.030Z,967.66
2018-04-20T06:29:10.010Z,967.67
2018-04-20T06:30:09.988Z,967.67
2018-04-20T06:31:13.720Z,967.67
2018-04-20T06:32:09.945Z,967.67
2018-04-20T06:33:09.924Z,967.70
2018-04-20T06:34:09.902Z,967.68
2018-04-20T06:35:09.881Z,967.68
2018-04-20T06:36:09.862Z,967.73
2018-04-20T06:37:09.839Z,967.75
2018-04-20T06:38:09.820Z,967.73
2018-04-20T06:39:09.798Z,967.70
2018-04-20T06:40:09.778Z,967.77
2018-04-20T06:41:09.756Z,967.78
2018-04-20T06:42:09.737Z,967.75
2018-04-20T06:43:09.717Z,967.74
2018-04-20T06:44:09.695Z,967.79
2018-04-20T06:45:09.673Z,967.73
2018-04-20T06:46:09.657Z,967.76
2018-04-20T06:47:09.633Z,967.74
2018-04-20T06:48:09.613Z,967.74
2018-04-20T06:49:09.592Z,967.75
2018-04-20T06:50:09.575Z,967.76
2018-04-20T06:51:09.552Z,967.77
2018-04-20T06:52:09.532Z,967.75
2018-04-20T06:53:09.510Z,967.76
2018-04-20T06:54:09.490Z,967.73
2018-04-20T06:55:09.469Z,967.77
2018-04-20T06:56:09.449Z,967.74
2018-04-20T06:57:09.428Z,967.75
2018-04-20T06:58:13.161Z,967.76
2018-04-20T06:59:09.387Z,967.76
2018-04-20T07:00:09.368Z,967.73
2018-04-20T07:01:09.346Z,967.76
2018-04-20T07:02:09.326Z,967.76
2018-04-20T07:03:09.308Z,967.78
2018-04-20T07:04:09.291Z,967.75
2018-04-20T07:05:09.265Z,967.77
2018-04-20T07:06:09.246Z,967.72
2018-04-20T07:07:09.226Z,967.70
2018-04-20T07:08:09.206Z,967.72
2018-04-20T07:09:09.185Z,967.69
2018-04-20T07:10:09.166Z,967.68
2018-04-20T07:11:09.145Z,967.69
2018-04-20T07:12:09.137Z,967.67
2018-04-20T07:13:09.103Z,967.68
2018-04-20T07:14:09.085Z,967.72
2018-04-20T07:15:09.067Z,967.70
2018-04-20T07:16:09.045Z,967.69
2018-04-20T07:17:09.031Z,967.66
2018-04-20T07:18:09.004Z,967.69
2018-04-20T07:19:08.983Z,967.70
2018-04-20T07:20:08.970Z,967.69
2018-04-20T07:21:08.944Z,967.70
2018-04-20T07:22:08.925Z,967.70
2018-04-20T07:23:08.904Z,967.72
2018-04-20T07:24:08.885Z,967.73
2018-04-20T07:25:08.864Z,967.71
2018-04-20T07:26:09.596Z,967.71
2018-04-20T07:27:08.824Z,967.68
2018-04-20T07:28:08.806Z,967.69
2018-04-20T07:29:08.785Z,967.67
2018-04-20T07:30:08.841Z,967.70
2018-04-20T07:31:08.745Z,967.67
2018-04-20T07:32:08.725Z,967.70
2018-04-20T07:33:08.708Z,967.70
2018-04-20T07:34:08.685Z,967.69
2018-04-20T07:35:08.665Z,967.65
2018-04-20T07:36:08.651Z,967.66
2018-04-20T07:37:08.627Z,967.69
2018-04-20T07:38:08.607Z,967.69
2018-04-20T07:39:08.592Z,967.70
2018-04-20T07:40:08.567Z,967.69
2018-04-20T07:41:08.547Z,967.72
2018-04-20T07:42:08.529Z,967.73
2018-04-20T07:43:08.510Z,967.72
2018-04-20T07:44:08.489Z,967.69
2018-04-20T07:45:08.471Z,967.68
2018-04-20T07:46:08.449Z,967.71
2018-04-20T07:47:08.430Z,967.72
2018-04-20T07:48:09.163Z,967.69
2018-04-20T07:49:08.390Z,967.72
2018-04-20T07:50:08.373Z,967.70
2018-04-20T07:51:08.352Z,967.70
2018-04-20T07:52:08.334Z,967.69
2018-04-20T07:53:08.314Z,967.70
2018-04-20T07:54:08.298Z,967.69
2018-04-20T07:55:08.276Z,967.72
2018-04-20T07:56:08.258Z,967.73
2018-04-20T07:57:08.238Z,967.74
2018-04-20T07:58:08.218Z,967.74
2018-04-20T07:59:08.199Z,967.75
2018-04-20T08:00:08.181Z,967.75
2018-04-20T08:01:08.161Z,967.78
2018-04-20T08:02:08.141Z,967.78
2018-04-20T08:03:08.170Z,967.78
2018-04-20T08:04:08.105Z,967.77
2018-04-20T08:05:08.088Z,967.79
2018-04-20T08:06:08.066Z,967.79
2018-04-20T08:07:08.048Z,967.79
2018-04-20T08:08:08.029Z,967.81
2018-04-20T08:09:08.008Z,967.78
2018-04-20T08:10:07.991Z,967.78
2018-04-20T08:11:07.971Z,967.77
2018-04-20T08:12:07.953Z,967.80
2018-04-20T08:13:07.932Z,967.80
2018-04-20T08:14:07.915Z,967.78
2018-04-20T08:15:07.895Z,967.78
2018-04-20T08:16:07.878Z,967.76
2018-04-20T08:17:07.858Z,967.80
2018-04-20T08:18:07.838Z,967.81
2018-04-20T08:19:07.824Z,967.79
2018-04-20T08:20:13.828Z,967.76
2018-04-20T08:21:07.782Z,967.79
2018-04-20T08:22:07.764Z,967.81
2018-04-20T08:23:07.746Z,967.76
2018-04-20T08:24:07.728Z,967.76
2018-04-20T08:25:07.709Z,967.75
2018-04-20T08:26:07.691Z,967.73
2018-04-20T08:27:07.673Z,967.75
2018-04-20T08:28:07.655Z,967.76
2018-04-20T08:29:07.635Z,967.76
2018-04-20T08:30:07.616Z,967.77
2018-04-20T08:31:07.598Z,967.75
2018-04-20T08:32:07.585Z,967.79
2018-04-20T08:33:07.562Z,967.72
2018-04-20T08:34:07.546Z,967.78
2018-04-20T08:35:07.524Z,967.80
2018-04-20T08:36:07.509Z,967.81
2018-04-20T08:37:07.489Z,967.80
2018-04-20T08:38:07.473Z,967.77
2018-04-20T08:39:07.451Z,967.80
2018-04-20T08:40:07.438Z,967.74
2018-04-20T08:41:07.415Z,967.79
2018-04-20T08:42:07.409Z,967.79
2018-04-20T08:43:07.378Z,967.80
2018-04-20T08:44:07.360Z,967.82
2018-04-20T08:45:07.341Z,967.81
2018-04-20T08:46:07.324Z,967.81
2018-04-20T08:47:09.558Z,967.80
2018-04-20T08:48:07.290Z,967.81
2018-04-20T08:49:07.270Z,967.79
2018-04-20T08:50:07.251Z,967.81
2018-04-20T08:51:07.233Z,967.79
2018-04-20T08:52:07.216Z,967.76
2018-04-20T08:53:07.198Z,967.80
2018-04-20T08:54:07.180Z,967.77
2018-04-20T08:55:07.161Z,967.80
2018-04-20T08:56:07.145Z,967.80
2018-04-20T08:57:07.125Z,967.80
2018-04-20T08:58:07.107Z,967.79
2018-04-20T08:59:07.092Z,967.81
2018-04-20T09:00:07.073Z,967.80
2018-04-20T09:01:07.053Z,967.80
2018-04-20T09:02:07.036Z,967.76
2018-04-20T09:03:07.023Z,967.76
2018-04-20T09:04:07.001Z,967.75
2018-04-20T09:05:06.984Z,967.72
2018-04-20T09:06:06.964Z,967.71
2018-04-20T09:07:06.948Z,967.75
2018-04-20T09:08:06.930Z,967.72
2018-04-20T09:09:06.916Z,967.73
2018-04-20T09:10:06.894Z,967.75
2018-04-20T09:11:06.876Z,967.73
2018-04-20T09:12:06.860Z,967.72
2018-04-20T09:13:06.843Z,967.71
2018-04-20T09:14:06.828Z,967.69
2018-04-20T09:15:06.807Z,967.68
2018-04-20T09:16:06.790Z,967.69
2018-04-20T09:17:06.772Z,967.69
2018-04-20T09:18:06.757Z,967.68
2018-04-20T09:19:06.739Z,967.67
2018-04-20T09:20:06.722Z,967.72
2018-04-20T09:21:06.702Z,967.70
2018-04-20T09:22:06.689Z,967.65
2018-04-20T09:23:06.669Z,967.69
2018-04-20T09:24:06.651Z,967.68
2018-04-20T09:25:06.633Z,967.63
2018-04-20T09:26:06.618Z,967.67
2018-04-20T09:27:06.601Z,967.67
2018-04-20T09:28:06.586Z,967.65
2018-04-20T09:29:06.566Z,967.65
2018-04-20T09:30:07.299Z,967.66
2018-04-20T09:31:06.531Z,967.69
2018-04-20T09:32:06.515Z,967.68
2018-04-20T09:33:06.497Z,967.65
2018-04-20T09:34:06.481Z,967.64
2018-04-20T09:35:06.464Z,967.67
2018-04-20T09:36:06.447Z,967.63
2018-04-20T09:37:06.428Z,967.64
2018-04-20T09:38:06.412Z,967.66
2018-04-20T09:39:06.396Z,967.63
2018-04-20T09:40:06.379Z,967.63
2018-04-20T09:41:06.362Z,967.66
2018-04-20T09:42:06.343Z,967.69
2018-04-20T09:43:06.327Z,967.66
2018-04-20T09:44:06.309Z,967.67
2018-04-20T09:45:06.291Z,967.67
2018-04-20T09:46:06.276Z,967.63
2018-04-20T09:47:06.259Z,967.61
2018-04-20T09:48:06.241Z,967.60
2018-04-20T09:49:06.224Z,967.58
2018-04-20T09:50:06.207Z,967.59
2018-04-20T09:51:06.190Z,967.58
2018-04-20T09:52:06.176Z,967.55
2018-04-20T09:53:06.158Z,967.58
2018-04-20T09:54:06.141Z,967.59
2018-04-20T09:55:06.123Z,967.57
2018-04-20T09:56:09.861Z,967.57
2018-04-20T09:57:06.094Z,967.52
2018-04-20T09:58:06.074Z,967.54
2018-04-20T09:59:06.058Z,967.55
2018-04-20T10:00:06.042Z,967.56
2018-04-20T10:01:06.023Z,967.50
2018-04-20T10:02:06.010Z,967.50
2018-04-20T10:03:05.991Z,967.52
2018-04-20T10:04:05.977Z,967.52
2018-04-20T10:05:05.957Z,967.54
2018-04-20T10:06:05.941Z,967.49
2018-04-20T10:07:05.925Z,967.49
2018-04-20T10:08:05.910Z,967.48
2018-04-20T10:09:05.892Z,967.45
2018-04-20T10:10:05.882Z,967.45
2018-04-20T10:11:05.861Z,967.45
2018-04-20T10:12:05.845Z,967.44
2018-04-20T10:13:05.827Z,967.44
2018-04-20T10:14:05.812Z,967.44
2018-04-20T10:15:05.796Z,967.42
2018-04-20T10:16:05.779Z,967.45
2018-04-20T10:17:05.765Z,967.41
2018-04-20T10:18:05.747Z,967.41
2018-04-20T10:19:05.791Z,967.39
2018-04-20T10:20:05.714Z,967.39
2018-04-20T10:21:05.698Z,967.35
2018-04-20T10:22:05.681Z,967.34
2018-04-20T10:23:05.664Z,967.35
2018-04-20T10:24:05.648Z,967.35
2018-04-20T10:25:05.634Z,967.35
2018-04-20T10:26:05.617Z,967.34
2018-04-20T10:27:05.602Z,967.34
2018-04-20T10:28:06.336Z,967.30
2018-04-20T10:29:05.569Z,967.30
2018-04-20T10:30:05.553Z,967.28
2018-04-20T10:31:05.541Z,967.29
2018-04-20T10:32:05.520Z,967.32
2018-04-20T10:33:05.527Z,967.29
2018-04-20T10:34:05.495Z,967.30
2018-04-20T10:35:05.472Z,967.24
2018-04-20T10:36:05.457Z,967.28
2018-04-20T10:37:05.439Z,967.24
2018-04-20T10:38:05.424Z,967.22
2018-04-20T10:39:05.409Z,967.24
2018-04-20T10:40:05.396Z,967.23
2018-04-20T10:41:05.416Z,967.19
2018-04-20T10:42:05.360Z,967.22
2018-04-20T10:43:05.347Z,967.21
2018-04-20T10:44:05.329Z,967.23
2018-04-20T10:45:05.311Z,967.23
2018-04-20T10:46:05.297Z,967.20
2018-04-20T10:47:05.280Z,967.20
2018-04-20T10:48:05.267Z,967.18
2018-04-20T10:49:05.248Z,967.18
2018-04-20T10:50:05.233Z,967.18
2018-04-20T10:51:05.218Z,967.15
2018-04-20T10:52:05.206Z,967.17
2018-04-20T10:53:05.189Z,967.15
2018-04-20T10:54:05.169Z,967.11
2018-04-20T10:55:05.154Z,967.14
2018-04-20T10:56:05.139Z,967.13
2018-04-20T10:57:05.121Z,967.15
2018-04-20T10:58:05.106Z,967.11
2018-04-20T10:59:05.092Z,967.14
2018-04-20T11:00:05.076Z,967.09
2018-04-20T11:01:05.064Z,967.12
2018-04-20T11:02:05.045Z,967.07
2018-04-20T11:03:05.028Z,967.11
2018-04-20T11:04:05.013Z,967.06
2018-04-20T11:05:04.996Z,967.06
2018-04-20T11:06:04.982Z,967.07
2018-04-20T11:07:04.966Z,967.06
2018-04-20T11:08:04.950Z,967.04
2018-04-20T11:09:04.935Z,967.04
2018-04-20T11:10:04.918Z,967.05
2018-04-20T11:11:04.903Z,967.04
2018-04-20T11:12:04.889Z,967.06
2018-04-20T11:13:04.872Z,967.02
2018-04-20T11:14:04.857Z,967.00
2018-04-20T11:15:04.846Z,967.03
2018-04-20T11:16:04.828Z,967.01
2018-04-20T11:17:04.810Z,967.00
2018-04-20T11:18:04.796Z,967.03
2018-04-20T11:19:04.780Z,967.03
2018-04-20T11:20:04.766Z,967.03
2018-04-20T11:21:04.749Z,967.05
2018-04-20T11:22:04.735Z,967.04
2018-04-20T11:23:04.719Z,967.01
2018-04-20T11:24:04.704Z,967.04
2018-04-20T11:25:04.689Z,967.00
2018-04-20T11:26:04.677Z,967.00
2018-04-20T11:27:04.660Z,967.00
2018-04-20T11:28:04.644Z,966.99
2018-04-20T11:29:04.628Z,966.96
2018-04-20T11:30:04.664Z,966.94
2018-04-20T11:31:04.600Z,966.94
2018-04-20T11:32:04.584Z,966.95
2018-04-20T11:33:04.570Z,966.96
2018-04-20T11:34:04.555Z,966.91
2018-04-20T11:35:04.539Z,966.93
2018-04-20T11:36:04.526Z,966.92
2018-04-20T11:37:04.510Z,966.88
2018-04-20T11:38:04.494Z,966.85
2018-04-20T11:39:04.481Z,966.81
2018-04-20T11:40:04.466Z,966.81
2018-04-20T11:41:04.450Z,966.79
2018-04-20T11:42:04.436Z,966.80
2018-04-20T11:43:04.423Z,966.81
2018-04-20T11:44:04.408Z,966.76
2018-04-20T11:45:04.398Z,966.73
2018-04-20T11:46:04.380Z,966.75
2018-04-20T11:47:04.364Z,966.76
2018-04-20T11:48:04.350Z,966.77
2018-04-20T11:49:04.334Z,966.80
2018-04-20T11:50:04.322Z,966.78
2018-04-20T11:51:04.307Z,966.72
2018-04-20T11:52:04.293Z,966.74
2018-04-20T11:53:04.277Z,966.74
2018-04-20T11:54:04.293Z,966.75
2018-04-20T11:55:04.248Z,966.72
2018-04-20T11:56:04.235Z,966.73
2018-04-20T11:57:04.221Z,966.75
2018-04-20T11:58:04.205Z,966.75
2018-04-20T11:59:04.193Z,966.75
2018-04-20T12:00:04.179Z,966.73
2018-04-20T12:01:04.162Z,966.72
2018-04-20T12:02:04.148Z,966.75
2018-04-20T12:03:04.135Z,966.72
2018-04-20T12:04:04.120Z,966.69
2018-04-20T12:05:04.106Z,966.62
2018-04-20T12:06:04.091Z,966.63
2018-04-20T12:07:04.077Z,966.68
2018-04-20T12:08:04.063Z,966.65
2018-04-20T12:09:04.048Z,966.67
2018-04-20T12:10:04.035Z,966.67
2018-04-20T12:11:04.020Z,966.63
2018-04-20T12:12:04.008Z,966.67
2018-04-20T12:13:03.993Z,966.64
2018-04-20T12:14:03.977Z,966.62
2018-04-20T12:15:03.965Z,966.65
2018-04-20T12:16:03.951Z,966.64
2018-04-20T12:17:03.936Z,966.59
2018-04-20T12:18:03.922Z,966.58
2018-04-20T12:19:03.908Z,966.60
2018-04-20T12:20:03.894Z,966.57
2018-04-20T12:21:03.880Z,966.58
2018-04-20T12:22:03.868Z,966.55
2018-04-20T12:23:03.857Z,966.51
2018-04-20T12:24:03.842Z,966.51
2018-04-20T12:25:03.829Z,966.52
2018-04-20T12:26:03.812Z,966.48
2018-04-20T12:27:03.798Z,966.50
2018-04-20T12:28:03.784Z,966.49